Meamina — 2AMK7 — position and weather

sailwx.info

Track history (hours):
 
Tides and Currents Weather Stations Pressure Air Temp Water Temp Dewpoint Dewpoint Depression Visibility Wind Speed Wind Dir Waves Ship Positions

Meamina

Last reported at 2017-Aug-18 11:28 UTC. Time now 2017-Aug-18 12:36 UTC.
Position N 43°10' E 006°38'.

Length 60 m; draft 3.2 m.

Type: Ship. MMSI: 235061022.

Date/timePositionNaut miles runAvg speedWind from/ knotsBaromVisibWave heightAir tempDewpointWater temp
2017-Aug-18 11:28N 43°10' E 006°38'4 5.5
2017-Aug-18 10:47N 43°12' E 006°42'18 1.2
2017-Aug-17 19:25N 43°26' E 006°58'614.7
2017-Aug-17 19:00N 43°29' E 007°05'714.1
2017-Aug-17 18:30N 43°35' E 007°10'4 0.8
2017-Aug-17 13:44N 43°39' E 007°11'8 4.1
2017-Aug-17 11:53N 43°32' E 007°08'411.4
2017-Aug-17 11:30N 43°30' E 007°02'3 0.1
2017-Aug-16 05:10N 43°33' E 007°01'0 0.0
2017-Aug-16 04:58N 43°33' E 007°01'0 0.0
2017-Aug-16 04:22N 43°33' E 007°01'0 0.0
2017-Aug-16 03:58N 43°33' E 007°01'0 0.0
2017-Aug-16 03:28N 43°33' E 007°01'0 0.0
2017-Aug-16 01:46N 43°33' E 007°01'0 0.0
2017-Aug-16 01:28N 43°33' E 007°01'0 0.0
2017-Aug-15 23:16N 43°33' E 007°01'0 0.0
2017-Aug-15 22:58N 43°33' E 007°01'0 0.0
2017-Aug-15 20:16N 43°33' E 007°01'0 0.0
2017-Aug-15 19:52N 43°33' E 007°01'0 0.0
2017-Aug-15 19:04N 43°33' E 007°01'0 0.0
2017-Aug-15 17:22N 43°33' E 007°01'0 0.0
2017-Aug-15 16:26N 43°33' E 007°01'0 0.0
2017-Aug-15 15:56N 43°33' E 007°01'0 0.0
2017-Aug-15 15:14N 43°33' E 007°01'0 0.0
2017-Aug-15 13:54N 43°33' E 007°01'0 0.7
2017-Aug-15 13:30N 43°33' E 007°01'4 7.7
2017-Aug-15 13:01N 43°31' E 007°06'5 0.7
2017-Aug-15 05:53N 43°35' E 007°09'512.0
2017-Aug-15 05:29N 43°31' E 007°12'1812.3
2017-Aug-15 04:03N 43°15' E 007°23'212.5
2017-Aug-15 03:53N 43°13' E 007°25'512.5
2017-Aug-15 03:30N 43°09' E 007°28'612.5
2017-Aug-15 03:00N 43°03' E 007°32'612.4
2017-Aug-15 02:30N 42°58' E 007°36'612.0
2017-Aug-15 01:59N 42°53' E 007°40'611.7
2017-Aug-15 01:30N 42°48' E 007°44'1311.4
2017-Aug-15 00:22N 42°36' E 007°51'411.3
2017-Aug-15 00:00N 42°32' E 007°54'611.4
2017-Aug-14 23:30N 42°28' E 007°58'611.6
2017-Aug-14 23:00N 42°22' E 008°02'1611.8
2017-Aug-14 21:42N 42°09' E 008°12'312.2
2017-Aug-14 21:28N 42°06' E 008°13'612.2
2017-Aug-14 21:00N 42°01' E 008°17'152 8.5
2017-Aug-14 03:03N 40°60' E 011°22'112.3
2017-Aug-14 03:00N 40°60' E 011°23'712.2
2017-Aug-14 02:26N 40°59' E 011°32'125 3.2
2017-Aug-12 11:45N 40°33' E 014°15'0 0.0
2017-Aug-12 11:27N 40°33' E 014°15'0 0.0
2017-Aug-11 18:15N 40°33' E 014°15'0 0.0
2017-Aug-11 17:57N 40°33' E 014°15'115 2.6
2017-Aug-09 21:43N 38°47' E 015°10'312.1
2017-Aug-09 21:30N 38°45' E 015°09'8 2.6
2017-Aug-09 18:20N 38°37' E 015°04'0 0.0
2017-Aug-09 17:32N 38°37' E 015°04'0 0.0
2017-Aug-09 17:29N 38°37' E 015°04'0 0.0
2017-Aug-09 14:32N 38°37' E 015°04'0 0.1
2017-Aug-09 14:26N 38°37' E 015°04'0 0.0
2017-Aug-09 13:50N 38°37' E 015°04'0 0.0
2017-Aug-09 13:26N 38°37' E 015°04'0 0.0
2017-Aug-09 12:02N 38°37' E 015°04'0 0.0
2017-Aug-09 10:50N 38°37' E 015°04'0 0.0
2017-Aug-09 10:24N 38°37' E 015°04'0 0.0
2017-Aug-09 09:44N 38°37' E 015°04'0 0.0
2017-Aug-09 08:29N 38°37' E 015°04'0 0.0
2017-Aug-09 07:56N 38°37' E 015°04'0 0.0
2017-Aug-09 06:30N 38°37' E 015°04'0 0.0
2017-Aug-09 05:56N 38°37' E 015°04'0 0.0
2017-Aug-09 03:50N 38°37' E 015°04'0 0.0
2017-Aug-09 03:26N 38°37' E 015°04'0 0.0
2017-Aug-09 02:32N 38°37' E 015°04'0 0.0
2017-Aug-09 02:20N 38°37' E 015°04'0 0.0
2017-Aug-08 22:50N 38°37' E 015°04'1 0.6
2017-Aug-08 21:01N 38°36' E 015°03'112.8
2017-Aug-08 20:58N 38°36' E 015°03'812.7
2017-Aug-08 20:20N 38°28' E 014°59'3 5.8
2017-Aug-08 19:52N 38°26' E 014°57'0 0.0
2017-Aug-08 19:22N 38°26' E 014°57'0 0.0
2017-Aug-08 18:49N 38°26' E 014°57'0 0.0
2017-Aug-08 18:28N 38°26' E 014°57'0 0.1
2017-Aug-08 17:58N 38°26' E 014°57'0 0.0
2017-Aug-08 17:28N 38°26' E 014°57'0 0.0
2017-Aug-08 15:37N 38°26' E 014°57'0 0.0
2017-Aug-08 15:28N 38°26' E 014°57'0 0.0
2017-Aug-08 12:55N 38°26' E 014°57'0 0.0
2017-Aug-08 12:13N 38°26' E 014°57'0 0.0
2017-Aug-08 11:58N 38°26' E 014°57'  
Track history (hours):
 
Tides and Currents Weather Stations Pressure Air Temp Water Temp Dewpoint Dewpoint Depression Visibility Wind Speed Wind Dir Waves Ship Positions

Meamina

Last reported at 2017-Aug-18 11:28 UTC. Time now 2017-Aug-18 12:36 UTC.
Position N 43°10' E 006°38'.

Length 60 m; draft 3.2 m.

Type: Ship. MMSI: 235061022.

Date/timePositionNaut miles runAvg speedWind from/ knotsBaromVisibWave heightAir tempDewpointWater temp
2017-Aug-18 11:28N 43°10' E 006°38'4 5.5
2017-Aug-18 10:47N 43°12' E 006°42'18 1.2
2017-Aug-17 19:25N 43°26' E 006°58'614.7
2017-Aug-17 19:00N 43°29' E 007°05'714.1
2017-Aug-17 18:30N 43°35' E 007°10'4 0.8
2017-Aug-17 13:44N 43°39' E 007°11'8 4.1
2017-Aug-17 11:53N 43°32' E 007°08'411.4
2017-Aug-17 11:30N 43°30' E 007°02'3 0.1
2017-Aug-16 05:10N 43°33' E 007°01'0 0.0
2017-Aug-16 04:58N 43°33' E 007°01'0 0.0
2017-Aug-16 04:22N 43°33' E 007°01'0 0.0
2017-Aug-16 03:58N 43°33' E 007°01'0 0.0
2017-Aug-16 03:28N 43°33' E 007°01'0 0.0
2017-Aug-16 01:46N 43°33' E 007°01'0 0.0
2017-Aug-16 01:28N 43°33' E 007°01'0 0.0
2017-Aug-15 23:16N 43°33' E 007°01'0 0.0
2017-Aug-15 22:58N 43°33' E 007°01'0 0.0
2017-Aug-15 20:16N 43°33' E 007°01'0 0.0
2017-Aug-15 19:52N 43°33' E 007°01'0 0.0
2017-Aug-15 19:04N 43°33' E 007°01'0 0.0
2017-Aug-15 17:22N 43°33' E 007°01'0 0.0
2017-Aug-15 16:26N 43°33' E 007°01'0 0.0
2017-Aug-15 15:56N 43°33' E 007°01'0 0.0
2017-Aug-15 15:14N 43°33' E 007°01'0 0.0
2017-Aug-15 13:54N 43°33' E 007°01'0 0.7
2017-Aug-15 13:30N 43°33' E 007°01'4 7.7
2017-Aug-15 13:01N 43°31' E 007°06'5 0.7
2017-Aug-15 05:53N 43°35' E 007°09'512.0
2017-Aug-15 05:29N 43°31' E 007°12'1812.3
2017-Aug-15 04:03N 43°15' E 007°23'212.5
2017-Aug-15 03:53N 43°13' E 007°25'512.5
2017-Aug-15 03:30N 43°09' E 007°28'612.5
2017-Aug-15 03:00N 43°03' E 007°32'612.4
2017-Aug-15 02:30N 42°58' E 007°36'612.0
2017-Aug-15 01:59N 42°53' E 007°40'611.7
2017-Aug-15 01:30N 42°48' E 007°44'1311.4
2017-Aug-15 00:22N 42°36' E 007°51'411.3
2017-Aug-15 00:00N 42°32' E 007°54'611.4
2017-Aug-14 23:30N 42°28' E 007°58'611.6
2017-Aug-14 23:00N 42°22' E 008°02'1611.8
2017-Aug-14 21:42N 42°09' E 008°12'312.2
2017-Aug-14 21:28N 42°06' E 008°13'612.2
2017-Aug-14 21:00N 42°01' E 008°17'152 8.5
2017-Aug-14 03:03N 40°60' E 011°22'112.3
2017-Aug-14 03:00N 40°60' E 011°23'712.2
2017-Aug-14 02:26N 40°59' E 011°32'125 3.2
2017-Aug-12 11:45N 40°33' E 014°15'0 0.0
2017-Aug-12 11:27N 40°33' E 014°15'0 0.0
2017-Aug-11 18:15N 40°33' E 014°15'0 0.0
2017-Aug-11 17:57N 40°33' E 014°15'115 2.6
2017-Aug-09 21:43N 38°47' E 015°10'312.1
2017-Aug-09 21:30N 38°45' E 015°09'8 2.6
2017-Aug-09 18:20N 38°37' E 015°04'0 0.0
2017-Aug-09 17:32N 38°37' E 015°04'0 0.0
2017-Aug-09 17:29N 38°37' E 015°04'0 0.0
2017-Aug-09 14:32N 38°37' E 015°04'0 0.1
2017-Aug-09 14:26N 38°37' E 015°04'0 0.0
2017-Aug-09 13:50N 38°37' E 015°04'0 0.0
2017-Aug-09 13:26N 38°37' E 015°04'0 0.0
2017-Aug-09 12:02N 38°37' E 015°04'0 0.0
2017-Aug-09 10:50N 38°37' E 015°04'0 0.0
2017-Aug-09 10:24N 38°37' E 015°04'0 0.0
2017-Aug-09 09:44N 38°37' E 015°04'0 0.0
2017-Aug-09 08:29N 38°37' E 015°04'0 0.0
2017-Aug-09 07:56N 38°37' E 015°04'0 0.0
2017-Aug-09 06:30N 38°37' E 015°04'0 0.0
2017-Aug-09 05:56N 38°37' E 015°04'0 0.0
2017-Aug-09 03:50N 38°37' E 015°04'0 0.0
2017-Aug-09 03:26N 38°37' E 015°04'0 0.0
2017-Aug-09 02:32N 38°37' E 015°04'0 0.0
2017-Aug-09 02:20N 38°37' E 015°04'0 0.0
2017-Aug-08 22:50N 38°37' E 015°04'1 0.6
2017-Aug-08 21:01N 38°36' E 015°03'112.8
2017-Aug-08 20:58N 38°36' E 015°03'812.7
2017-Aug-08 20:20N 38°28' E 014°59'3 5.8
2017-Aug-08 19:52N 38°26' E 014°57'0 0.0
2017-Aug-08 19:22N 38°26' E 014°57'0 0.0
2017-Aug-08 18:49N 38°26' E 014°57'0 0.0
2017-Aug-08 18:28N 38°26' E 014°57'0 0.1
2017-Aug-08 17:58N 38°26' E 014°57'0 0.0
2017-Aug-08 17:28N 38°26' E 014°57'0 0.0
2017-Aug-08 15:37N 38°26' E 014°57'0 0.0
2017-Aug-08 15:28N 38°26' E 014°57'0 0.0
2017-Aug-08 12:55N 38°26' E 014°57'0 0.0
2017-Aug-08 12:13N 38°26' E 014°57'0 0.0
2017-Aug-08 11:58N 38°26' E 014°57'  

Dump ship's entire track history